createdAt,value
2022-09-26T00:01:15.333Z,100.00
2022-09-26T00:03:47.091Z,100.00
2022-09-26T00:06:16.128Z,100.00
2022-09-26T00:08:42.676Z,100.00
2022-09-26T00:11:11.246Z,100.00
2022-09-26T00:13:39.617Z,100.00
2022-09-26T00:16:07.567Z,100.00
2022-09-26T00:18:34.549Z,100.00
2022-09-26T00:21:08.624Z,100.00
2022-09-26T00:23:35.571Z,100.00
2022-09-26T00:26:02.137Z,100.00
2022-09-26T00:28:28.952Z,100.00
2022-09-26T00:30:56.676Z,100.00
2022-09-26T00:33:24.305Z,100.00
2022-09-26T00:35:55.575Z,100.00
2022-09-26T00:38:23.002Z,100.00
2022-09-26T00:40:50.586Z,100.00
2022-09-26T00:43:40.709Z,100.00
2022-09-26T00:46:39.997Z,100.00
2022-09-26T00:49:20.285Z,100.00
2022-09-26T00:51:53.034Z,100.00
2022-09-26T00:54:20.289Z,100.00
2022-09-26T00:56:50.520Z,100.00
2022-09-26T00:59:27.245Z,100.00
2022-09-26T01:01:56.300Z,100.00
2022-09-26T01:04:25.734Z,100.00
2022-09-26T01:06:52.448Z,100.00
2022-09-26T01:09:20.294Z,100.00
2022-09-26T01:11:46.945Z,100.00
2022-09-26T01:14:14.021Z,100.00
2022-09-26T01:16:44.703Z,100.00
2022-09-26T01:19:52.814Z,100.00
2022-09-26T01:22:59.762Z,100.00
2022-09-26T01:26:00.113Z,100.00
2022-09-26T01:28:48.997Z,100.00
2022-09-26T01:31:33.606Z,100.00
2022-09-26T01:34:20.283Z,100.00
2022-09-26T01:36:55.436Z,100.00
2022-09-26T01:39:57.748Z,100.00
2022-09-26T01:42:42.674Z,100.00
2022-09-26T01:45:19.900Z,100.00
2022-09-26T01:48:03.844Z,100.00
2022-09-26T01:51:07.954Z,100.00
2022-09-26T01:53:49.711Z,100.00
2022-09-26T01:56:22.373Z,100.00
2022-09-26T01:58:55.275Z,100.00
2022-09-26T02:01:24.552Z,100.00
2022-09-26T02:03:58.798Z,100.00
2022-09-26T02:06:33.916Z,100.00
2022-09-26T02:09:09.355Z,100.00
2022-09-26T02:11:42.362Z,100.00
2022-09-26T02:14:36.614Z,100.00
2022-09-26T02:17:16.777Z,100.00
2022-09-26T02:19:58.904Z,100.00
2022-09-26T02:22:44.099Z,100.00
2022-09-26T02:25:11.769Z,100.00
2022-09-26T02:27:40.995Z,100.00
2022-09-26T02:30:08.181Z,100.00
2022-09-26T02:32:36.652Z,100.00
2022-09-26T02:35:33.907Z,100.00
2022-09-26T02:38:00.835Z,100.00
2022-09-26T02:40:42.286Z,100.00
2022-09-26T02:43:32.933Z,100.00
2022-09-26T02:46:12.085Z,100.00
2022-09-26T02:48:58.813Z,100.00
2022-09-26T02:51:59.580Z,100.00
2022-09-26T02:54:32.356Z,100.00
2022-09-26T02:57:09.076Z,100.00
2022-09-26T02:59:43.632Z,100.00
2022-09-26T03:02:35.823Z,100.00
2022-09-26T03:05:10.126Z,100.00
2022-09-26T03:07:43.498Z,100.00
2022-09-26T03:10:13.019Z,100.00
2022-09-26T03:12:40.540Z,100.00
2022-09-26T03:15:09.448Z,100.00
2022-09-26T03:17:41.094Z,100.00
2022-09-26T03:20:14.790Z,100.00
2022-09-26T03:22:45.210Z,100.00
2022-09-26T03:25:20.315Z,100.00
2022-09-26T03:27:47.996Z,100.00
2022-09-26T03:30:17.003Z,100.00
2022-09-26T03:32:44.727Z,100.00
2022-09-26T03:35:11.337Z,100.00
2022-09-26T03:37:38.218Z,100.00
2022-09-26T03:40:06.922Z,100.00
2022-09-26T03:42:34.078Z,100.00
2022-09-26T03:45:01.595Z,100.00
2022-09-26T03:47:29.010Z,100.00
2022-09-26T03:49:56.175Z,100.00
2022-09-26T03:52:24.999Z,100.00
2022-09-26T03:54:54.404Z,99.81
2022-09-26T03:57:21.315Z,100.00
2022-09-26T03:59:50.573Z,99.86
2022-09-26T04:02:17.347Z,100.00
2022-09-26T04:04:44.062Z,100.00
2022-09-26T04:07:10.724Z,100.00
2022-09-26T04:09:37.370Z,100.00
2022-09-26T04:12:07.985Z,100.00
2022-09-26T04:14:35.884Z,99.84
2022-09-26T04:17:02.436Z,99.61
2022-09-26T04:19:29.003Z,99.53
2022-09-26T04:21:55.590Z,99.54
2022-09-26T04:24:22.314Z,99.79
2022-09-26T04:26:49.050Z,99.82
2022-09-26T04:29:16.341Z,100.00
2022-09-26T04:31:43.893Z,100.00
2022-09-26T04:34:11.599Z,100.00
2022-09-26T04:36:38.662Z,100.00
2022-09-26T04:39:05.520Z,100.00
2022-09-26T04:41:32.488Z,100.00
2022-09-26T04:44:00.379Z,100.00
2022-09-26T04:46:31.894Z,100.00
2022-09-26T04:49:00.320Z,100.00
2022-09-26T04:51:28.071Z,100.00
2022-09-26T04:53:55.493Z,100.00
2022-09-26T04:56:24.125Z,100.00
2022-09-26T04:58:51.574Z,100.00
2022-09-26T05:03:59.036Z,100.00
2022-09-26T05:06:25.928Z,100.00
2022-09-26T05:08:52.602Z,99.84
2022-09-26T05:11:21.668Z,99.98
2022-09-26T05:13:53.722Z,99.68
2022-09-26T05:16:21.701Z,99.96
2022-09-26T05:18:52.423Z,100.00
2022-09-26T05:21:19.192Z,100.00
2022-09-26T05:24:04.207Z,100.00
2022-09-26T05:26:36.503Z,100.00
2022-09-26T05:29:08.473Z,100.00
2022-09-26T05:31:38.109Z,100.00
2022-09-26T05:34:07.470Z,100.00
2022-09-26T05:36:34.654Z,100.00
2022-09-26T05:39:03.832Z,100.00
2022-09-26T05:41:31.894Z,100.00
2022-09-26T05:43:58.738Z,100.00
2022-09-26T05:46:27.161Z,100.00
2022-09-26T05:48:55.535Z,100.00
2022-09-26T05:51:23.537Z,100.00
2022-09-26T05:53:50.304Z,100.00
2022-09-26T05:56:19.201Z,100.00
2022-09-26T05:58:47.297Z,99.67
2022-09-26T06:01:16.636Z,99.62
2022-09-26T06:03:44.828Z,99.72
2022-09-26T06:06:17.122Z,99.72
2022-09-26T06:08:44.284Z,99.55
2022-09-26T06:11:13.933Z,99.33
2022-09-26T06:13:45.828Z,99.62
2022-09-26T06:16:15.167Z,99.57
2022-09-26T06:18:42.094Z,99.45
2022-09-26T06:21:10.913Z,99.46
2022-09-26T06:23:38.149Z,99.20
2022-09-26T06:26:08.378Z,99.18
2022-09-26T06:28:38.963Z,99.08
2022-09-26T06:31:09.127Z,99.21
2022-09-26T06:33:35.653Z,98.72
2022-09-26T06:36:07.975Z,98.58
2022-09-26T06:38:35.305Z,98.45
2022-09-26T06:41:04.034Z,96.55
2022-09-26T06:43:31.416Z,95.73
2022-09-26T06:45:57.944Z,95.06
2022-09-26T06:48:27.310Z,94.14
2022-09-26T06:50:58.611Z,93.88
2022-09-26T06:53:25.217Z,93.15
2022-09-26T06:55:51.828Z,93.78
2022-09-26T06:58:18.993Z,92.15
2022-09-26T07:00:48.291Z,92.53
2022-09-26T07:03:17.583Z,92.76
2022-09-26T07:05:45.381Z,92.40
2022-09-26T07:08:11.942Z,92.28
2022-09-26T07:10:43.124Z,90.93
2022-09-26T07:13:10.210Z,89.47
2022-09-26T07:15:37.392Z,88.72
2022-09-26T07:18:06.427Z,89.12
2022-09-26T07:20:40.337Z,89.58
2022-09-26T07:23:10.078Z,89.00
2022-09-26T07:25:39.481Z,88.51
2022-09-26T07:28:07.443Z,88.08
2022-09-26T07:30:34.562Z,86.52
2022-09-26T07:33:05.300Z,86.42
2022-09-26T07:35:33.430Z,87.11
2022-09-26T07:38:03.185Z,87.00
2022-09-26T07:40:30.078Z,87.27
2022-09-26T07:43:19.111Z,86.94
2022-09-26T07:46:05.352Z,84.48
2022-09-26T07:48:50.485Z,83.56
2022-09-26T07:51:17.042Z,82.75
2022-09-26T07:53:43.432Z,82.94
2022-09-26T07:56:10.616Z,82.62
2022-09-26T07:58:39.706Z,80.77
2022-09-26T08:01:11.585Z,81.11
2022-09-26T08:03:39.611Z,80.48
2022-09-26T08:06:06.689Z,79.93
2022-09-26T08:08:33.538Z,80.54
2022-09-26T08:11:04.026Z,80.43
2022-09-26T08:13:32.287Z,78.74
2022-09-26T08:16:06.100Z,77.41
2022-09-26T08:18:36.645Z,77.61
2022-09-26T08:21:06.791Z,77.05
2022-09-26T08:23:38.513Z,75.84
2022-09-26T08:26:11.031Z,75.71
2022-09-26T08:28:38.175Z,74.82
2022-09-26T08:31:06.406Z,74.05
2022-09-26T08:33:35.288Z,74.79
2022-09-26T08:36:06.977Z,73.62
2022-09-26T08:38:35.554Z,73.35
2022-09-26T08:41:36.535Z,72.38
2022-09-26T08:44:28.130Z,71.90
2022-09-26T08:47:06.379Z,72.10
2022-09-26T08:49:40.325Z,71.19
2022-09-26T08:52:20.366Z,71.27
2022-09-26T08:54:47.744Z,72.27
2022-09-26T08:57:44.845Z,70.02
2022-09-26T09:00:19.356Z,69.61
2022-09-26T09:03:01.549Z,70.61
2022-09-26T09:05:39.428Z,70.93
2022-09-26T09:08:16.299Z,68.41
2022-09-26T09:11:20.911Z,68.70
2022-09-26T09:14:01.599Z,68.80
2022-09-26T09:16:37.004Z,67.88
2022-09-26T09:19:19.837Z,67.56
2022-09-26T09:22:09.821Z,66.98
2022-09-26T09:25:05.636Z,65.57
2022-09-26T09:27:59.333Z,65.49
2022-09-26T09:30:45.954Z,65.80
2022-09-26T09:33:31.193Z,66.70
2022-09-26T09:36:07.083Z,67.54
2022-09-26T09:38:37.882Z,65.78
2022-09-26T09:41:09.186Z,64.55
2022-09-26T09:44:10.821Z,63.90
2022-09-26T09:46:43.105Z,63.83
2022-09-26T09:49:09.640Z,64.30
2022-09-26T09:52:13.807Z,62.37
2022-09-26T09:54:51.973Z,61.23
2022-09-26T09:57:49.032Z,61.41
2022-09-26T10:00:25.358Z,60.67
2022-09-26T10:03:02.699Z,60.81
2022-09-26T10:05:39.265Z,60.27
2022-09-26T10:08:15.768Z,60.78
2022-09-26T10:11:11.541Z,61.81
2022-09-26T10:13:42.561Z,60.82
2022-09-26T10:16:15.395Z,59.77
2022-09-26T10:19:03.617Z,58.24
2022-09-26T10:21:35.185Z,57.14
2022-09-26T10:24:06.787Z,55.84
2022-09-26T10:26:36.428Z,55.36
2022-09-26T10:29:25.335Z,55.67
2022-09-26T10:31:58.561Z,54.92
2022-09-26T10:34:28.114Z,55.42
2022-09-26T10:36:55.967Z,55.57
2022-09-26T10:39:48.437Z,53.23
2022-09-26T10:42:23.049Z,50.55
2022-09-26T10:44:50.868Z,53.26
2022-09-26T10:47:23.418Z,52.17
2022-09-26T10:50:16.577Z,50.69
2022-09-26T10:52:56.080Z,50.06
2022-09-26T10:55:46.008Z,51.96
2022-09-26T10:58:21.088Z,53.05
2022-09-26T11:00:50.574Z,53.42
2022-09-26T11:03:32.440Z,53.86
2022-09-26T11:06:01.789Z,53.48
2022-09-26T11:08:33.981Z,53.56
2022-09-26T11:11:04.137Z,53.89
2022-09-26T11:13:40.117Z,52.08
2022-09-26T11:16:13.115Z,52.71
2022-09-26T11:18:48.362Z,52.51
2022-09-26T11:21:36.712Z,52.17
2022-09-26T11:24:21.338Z,50.66
2022-09-26T11:26:54.156Z,51.19
2022-09-26T11:29:39.911Z,50.51
2022-09-26T11:32:06.453Z,48.58
2022-09-26T11:34:35.123Z,50.02
2022-09-26T11:37:17.158Z,50.71
2022-09-26T11:39:58.523Z,51.37
2022-09-26T11:42:43.855Z,51.46
2022-09-26T11:45:22.901Z,51.80
2022-09-26T11:48:12.872Z,51.01
2022-09-26T11:50:56.552Z,52.29
2022-09-26T11:53:42.343Z,51.82
2022-09-26T11:56:26.753Z,51.87
2022-09-26T11:58:59.644Z,51.25
2022-09-26T12:01:55.054Z,52.53
2022-09-26T12:04:21.671Z,51.85
2022-09-26T12:06:51.391Z,52.10
2022-09-26T12:09:36.062Z,51.85
2022-09-26T12:12:44.735Z,52.12
2022-09-26T12:15:17.638Z,53.10
2022-09-26T12:17:54.267Z,53.21
2022-09-26T12:20:39.980Z,52.85
2022-09-26T12:23:28.379Z,52.67
2022-09-26T12:26:10.549Z,53.83
2022-09-26T12:29:03.038Z,54.13
2022-09-26T12:31:40.541Z,54.72
2022-09-26T12:34:14.368Z,54.49
2022-09-26T12:37:06.638Z,54.37
2022-09-26T12:39:55.403Z,54.61
2022-09-26T12:42:52.116Z,54.81
2022-09-26T12:45:57.090Z,55.76
2022-09-26T12:48:32.659Z,55.25
2022-09-26T12:51:20.405Z,54.00
2022-09-26T12:54:06.505Z,54.07
2022-09-26T12:56:51.915Z,54.59
2022-09-26T12:59:41.216Z,55.77
2022-09-26T13:02:28.629Z,55.44
2022-09-26T13:05:23.653Z,56.49
2022-09-26T13:08:27.977Z,57.47
2022-09-26T13:11:12.563Z,57.30
2022-09-26T13:13:47.318Z,58.68
2022-09-26T13:16:37.264Z,61.44
2022-09-26T13:19:34.764Z,64.70
2022-09-26T13:22:06.026Z,67.88
2022-09-26T13:24:59.455Z,67.79
2022-09-26T13:27:37.401Z,69.04
2022-09-26T13:30:08.283Z,69.94
2022-09-26T13:32:41.735Z,70.78
2022-09-26T13:35:30.122Z,73.70
2022-09-26T13:38:14.255Z,69.34
2022-09-26T13:40:43.775Z,67.66
2022-09-26T13:43:24.455Z,67.97
2022-09-26T13:46:20.604Z,68.23
2022-09-26T13:49:02.694Z,67.96
2022-09-26T13:51:49.956Z,67.85
2022-09-26T13:54:26.991Z,68.32
2022-09-26T13:56:54.439Z,68.14
2022-09-26T13:59:23.165Z,69.17
2022-09-26T14:02:25.242Z,65.62
2022-09-26T14:05:13.616Z,67.65
2022-09-26T14:07:58.780Z,65.50
2022-09-26T14:10:25.252Z,61.71
2022-09-26T14:13:25.438Z,63.35
2022-09-26T14:15:57.407Z,63.42
2022-09-26T14:18:53.914Z,60.17
2022-09-26T14:21:38.320Z,58.34
2022-09-26T14:24:32.651Z,59.73
2022-09-26T14:27:42.149Z,59.80
2022-09-26T14:30:30.777Z,60.00
2022-09-26T14:33:04.985Z,57.39
2022-09-26T14:35:36.275Z,57.61
2022-09-26T14:38:13.571Z,53.33
2022-09-26T14:40:56.700Z,56.05
2022-09-26T14:43:27.396Z,53.02
2022-09-26T14:46:09.237Z,55.49
2022-09-26T14:48:40.025Z,53.00
2022-09-26T14:51:24.987Z,55.65
2022-09-26T14:54:05.974Z,56.48
2022-09-26T14:56:47.554Z,55.45
2022-09-26T14:59:17.031Z,57.67
2022-09-26T15:01:45.324Z,59.97
2022-09-26T15:04:19.348Z,58.99
2022-09-26T15:06:52.915Z,59.49
2022-09-26T15:09:42.241Z,59.75
2022-09-26T15:12:15.340Z,60.42
2022-09-26T15:14:49.820Z,62.52
2022-09-26T15:17:27.616Z,61.23
2022-09-26T15:19:57.229Z,60.39
2022-09-26T15:22:25.810Z,60.23
2022-09-26T15:25:07.381Z,61.54
2022-09-26T15:27:34.111Z,61.33
2022-09-26T15:30:17.955Z,62.20
2022-09-26T15:32:47.793Z,61.67
2022-09-26T15:35:15.540Z,61.33
2022-09-26T15:37:43.218Z,59.88
2022-09-26T15:40:25.668Z,59.42
2022-09-26T15:43:16.013Z,59.08
2022-09-26T15:45:46.334Z,60.11
2022-09-26T15:48:18.899Z,60.35
2022-09-26T15:50:51.769Z,60.75
2022-09-26T15:53:39.650Z,60.88
2022-09-26T15:56:13.788Z,61.28
2022-09-26T15:58:58.760Z,61.66
2022-09-26T16:01:29.043Z,62.37
2022-09-26T16:03:57.395Z,62.23
2022-09-26T16:06:27.890Z,62.71
2022-09-26T16:08:59.697Z,63.09
2022-09-26T16:11:27.433Z,62.49
2022-09-26T16:13:56.514Z,61.62
2022-09-26T16:16:31.729Z,61.97
2022-09-26T16:19:05.234Z,61.50
2022-09-26T16:21:36.309Z,61.63
2022-09-26T16:24:31.248Z,62.20
2022-09-26T16:26:58.019Z,62.56
2022-09-26T16:29:34.740Z,63.50
2022-09-26T16:32:17.964Z,63.75
2022-09-26T16:34:49.048Z,64.50
2022-09-26T16:37:21.793Z,64.39
2022-09-26T16:39:58.967Z,65.48
2022-09-26T16:42:32.717Z,64.92
2022-09-26T16:45:05.370Z,65.09
2022-09-26T16:47:50.793Z,64.89
2022-09-26T16:50:33.160Z,65.62
2022-09-26T16:53:11.435Z,65.70
2022-09-26T16:55:37.983Z,65.58
2022-09-26T16:58:07.763Z,65.85
2022-09-26T17:00:54.111Z,66.22
2022-09-26T17:03:22.785Z,66.35
2022-09-26T17:09:36.607Z,67.84
2022-09-26T17:12:16.509Z,67.11
2022-09-26T17:15:02.003Z,68.08
2022-09-26T17:17:42.019Z,66.51
2022-09-26T17:20:30.162Z,66.83
2022-09-26T17:23:11.948Z,66.45
2022-09-26T17:26:00.783Z,67.68
2022-09-26T17:36:05.331Z,67.53
2022-09-26T17:38:38.916Z,67.44
2022-09-26T17:44:26.039Z,68.35
2022-09-26T17:47:15.925Z,68.24
2022-09-26T17:49:47.021Z,68.64
2022-09-26T17:52:39.352Z,68.98
2022-09-26T17:55:14.056Z,68.31
2022-09-26T17:58:13.466Z,68.92
2022-09-26T18:04:42.739Z,69.95
2022-09-26T18:07:19.323Z,69.23
2022-09-26T18:09:55.784Z,69.13
2022-09-26T18:12:27.805Z,69.87
2022-09-26T18:15:07.551Z,69.24
2022-09-26T18:18:03.939Z,69.30
2022-09-26T18:21:23.500Z,69.83
2022-09-26T18:24:20.015Z,69.85
2022-09-26T18:26:54.171Z,69.98
2022-09-26T18:29:37.485Z,69.71
2022-09-26T18:32:11.003Z,69.59
2022-09-26T18:34:40.850Z,69.69
2022-09-26T18:37:11.840Z,69.87
2022-09-26T18:39:53.614Z,69.69
2022-09-26T18:42:25.403Z,69.69
2022-09-26T18:45:11.516Z,71.91
2022-09-26T18:47:44.828Z,73.89
2022-09-26T18:50:37.069Z,72.37
2022-09-26T18:53:07.946Z,74.49
2022-09-26T18:55:52.981Z,73.06
2022-09-26T18:58:28.272Z,73.37
2022-09-26T19:01:12.996Z,72.88
2022-09-26T19:03:44.522Z,72.44
2022-09-26T19:06:13.720Z,72.31
2022-09-26T19:08:47.582Z,72.45
2022-09-26T19:11:17.410Z,71.92
2022-09-26T19:13:48.969Z,71.53
2022-09-26T19:16:16.003Z,70.53
2022-09-26T19:18:48.344Z,71.18
2022-09-26T19:21:33.392Z,70.63
2022-09-26T19:24:07.911Z,70.86
2022-09-26T19:26:42.907Z,70.62
2022-09-26T19:29:18.348Z,70.54
2022-09-26T19:31:44.980Z,70.57
2022-09-26T19:34:15.901Z,69.85
2022-09-26T19:36:42.761Z,69.75
2022-09-26T19:39:15.076Z,69.46
2022-09-26T19:41:42.086Z,68.89
2022-09-26T19:44:09.156Z,69.07
2022-09-26T19:46:40.876Z,68.49
2022-09-26T19:49:11.342Z,69.12
2022-09-26T19:51:39.782Z,68.60
2022-09-26T19:54:06.771Z,68.52
2022-09-26T19:56:33.742Z,67.96
2022-09-26T19:59:00.287Z,67.68
2022-09-26T20:01:27.426Z,67.06
2022-09-26T20:03:54.274Z,67.78
2022-09-26T20:06:23.638Z,67.25
2022-09-26T20:08:53.229Z,67.13
2022-09-26T20:11:22.354Z,66.77
2022-09-26T20:14:07.546Z,66.50
2022-09-26T20:16:39.751Z,66.88
2022-09-26T20:19:08.328Z,67.07
2022-09-26T20:21:35.011Z,66.18
2022-09-26T20:24:02.266Z,66.04
2022-09-26T20:26:30.608Z,66.25
2022-09-26T20:28:57.450Z,66.38
2022-09-26T20:31:28.338Z,66.41
2022-09-26T20:33:59.175Z,66.25
2022-09-26T20:36:34.089Z,65.57
2022-09-26T20:39:04.170Z,65.53
2022-09-26T20:41:30.611Z,65.53
2022-09-26T20:44:02.041Z,65.84
2022-09-26T20:46:33.705Z,65.46
2022-09-26T20:49:05.535Z,65.87
2022-09-26T20:51:35.567Z,65.42
2022-09-26T20:54:03.303Z,65.79
2022-09-26T20:56:29.921Z,65.89
2022-09-26T20:58:56.513Z,65.78
2022-09-26T21:01:25.903Z,65.82
2022-09-26T21:03:55.141Z,66.10
2022-09-26T21:06:25.029Z,66.00
2022-09-26T21:08:51.586Z,65.64
2022-09-26T21:11:20.839Z,65.80
2022-09-26T21:13:48.460Z,66.38
2022-09-26T21:16:20.032Z,66.98
2022-09-26T21:18:49.900Z,66.48
2022-09-26T21:21:19.318Z,66.61
2022-09-26T21:23:49.939Z,66.88
2022-09-26T21:26:20.824Z,67.48
2022-09-26T21:28:50.270Z,67.01
2022-09-26T21:31:22.540Z,67.13
2022-09-26T21:33:49.765Z,67.42
2022-09-26T21:36:19.338Z,67.63
2022-09-26T21:38:46.868Z,66.95
2022-09-26T21:41:13.506Z,67.00
2022-09-26T21:43:45.190Z,67.36
2022-09-26T21:46:14.505Z,67.73
2022-09-26T21:48:41.218Z,67.56
2022-09-26T21:51:08.697Z,68.03
2022-09-26T21:53:45.882Z,67.56
2022-09-26T21:56:21.224Z,68.36
2022-09-26T21:58:48.650Z,67.92
2022-09-26T22:01:15.372Z,68.18
2022-09-26T22:03:42.144Z,68.72
2022-09-26T22:06:09.998Z,68.25
2022-09-26T22:08:37.191Z,68.68
2022-09-26T22:11:04.537Z,68.30
2022-09-26T22:13:33.198Z,68.65
2022-09-26T22:16:06.016Z,68.36
2022-09-26T22:18:33.806Z,68.83
2022-09-26T22:21:00.711Z,68.07
2022-09-26T22:23:27.358Z,68.66
2022-09-26T22:25:53.997Z,68.81
2022-09-26T22:28:20.565Z,69.19
2022-09-26T22:30:47.189Z,68.61
2022-09-26T22:33:13.868Z,69.06
2022-09-26T22:35:40.473Z,69.60
2022-09-26T22:38:08.412Z,69.68
2022-09-26T22:40:34.961Z,69.34
2022-09-26T22:43:01.476Z,69.08
2022-09-26T22:45:28.410Z,69.39
2022-09-26T22:47:54.942Z,69.47
2022-09-26T22:50:21.379Z,69.61
2022-09-26T22:52:48.349Z,69.48
2022-09-26T22:55:15.279Z,69.86
2022-09-26T22:57:42.103Z,69.20
2022-09-26T23:00:09.358Z,69.25
2022-09-26T23:02:36.170Z,69.61
2022-09-26T23:05:02.786Z,69.37
2022-09-26T23:07:30.147Z,69.22
2022-09-26T23:09:56.956Z,69.51
2022-09-26T23:12:23.427Z,70.19
2022-09-26T23:14:49.896Z,71.55
2022-09-26T23:17:16.576Z,71.75
2022-09-26T23:19:43.880Z,71.98
2022-09-26T23:22:10.496Z,73.12
2022-09-26T23:24:37.206Z,73.27
2022-09-26T23:27:03.935Z,74.16
2022-09-26T23:29:30.578Z,74.54
2022-09-26T23:31:57.828Z,75.15
2022-09-26T23:34:24.526Z,75.32
2022-09-26T23:36:51.002Z,75.28
2022-09-26T23:39:17.631Z,76.04
2022-09-26T23:41:44.224Z,76.16
2022-09-26T23:44:10.648Z,75.70
2022-09-26T23:46:37.124Z,75.62
2022-09-26T23:49:03.638Z,75.76
2022-09-26T23:51:30.392Z,76.04
2022-09-26T23:53:56.931Z,76.01
2022-09-26T23:56:23.696Z,75.69
2022-09-26T23:58:50.186Z,76.25
